sensor_id;sensor_type;location;lat;lon;timestamp;temperature;humidity
780;DHT22;373;49.342;8.146;2023-06-05T00:00:32;18.60;1.00
780;DHT22;373;49.342;8.146;2023-06-05T00:03:00;18.30;1.00
780;DHT22;373;49.342;8.146;2023-06-05T00:05:27;18.20;1.00
780;DHT22;373;49.342;8.146;2023-06-05T00:07:55;18.00;1.00
780;DHT22;373;49.342;8.146;2023-06-05T00:10:22;17.80;1.00
780;DHT22;373;49.342;8.146;2023-06-05T00:12:49;17.70;1.00
780;DHT22;373;49.342;8.146;2023-06-05T00:15:16;17.60;1.00
780;DHT22;373;49.342;8.146;2023-06-05T00:17:43;17.60;1.00
780;DHT22;373;49.342;8.146;2023-06-05T00:20:12;17.80;1.00
780;DHT22;373;49.342;8.146;2023-06-05T00:22:39;17.70;1.00
780;DHT22;373;49.342;8.146;2023-06-05T00:25:10;17.80;1.00
780;DHT22;373;49.342;8.146;2023-06-05T00:27:37;17.80;1.00
780;DHT22;373;49.342;8.146;2023-06-05T00:30:07;17.70;1.00
780;DHT22;373;49.342;8.146;2023-06-05T00:32:35;17.70;1.00
780;DHT22;373;49.342;8.146;2023-06-05T00:35:03;17.80;1.00
780;DHT22;373;49.342;8.146;2023-06-05T00:37:31;17.60;1.00
780;DHT22;373;49.342;8.146;2023-06-05T00:39:59;17.90;1.00
780;DHT22;373;49.342;8.146;2023-06-05T00:42:26;17.60;1.00
780;DHT22;373;49.342;8.146;2023-06-05T00:44:53;17.60;1.00
780;DHT22;373;49.342;8.146;2023-06-05T00:47:20;17.70;1.00
780;DHT22;373;49.342;8.146;2023-06-05T00:49:49;17.50;1.00
780;DHT22;373;49.342;8.146;2023-06-05T00:52:16;17.60;1.00
780;DHT22;373;49.342;8.146;2023-06-05T00:54:45;17.50;1.00
780;DHT22;373;49.342;8.146;2023-06-05T00:57:12;17.60;1.00
780;DHT22;373;49.342;8.146;2023-06-05T00:59:40;17.20;1.00
780;DHT22;373;49.342;8.146;2023-06-05T01:02:11;16.90;1.00
780;DHT22;373;49.342;8.146;2023-06-05T01:04:39;17.00;1.00
780;DHT22;373;49.342;8.146;2023-06-05T01:07:09;16.90;1.00
780;DHT22;373;49.342;8.146;2023-06-05T01:09:37;16.90;1.00
780;DHT22;373;49.342;8.146;2023-06-05T01:12:14;16.70;1.00
780;DHT22;373;49.342;8.146;2023-06-05T01:14:46;16.60;1.00
780;DHT22;373;49.342;8.146;2023-06-05T01:17:15;16.40;1.00
780;DHT22;373;49.342;8.146;2023-06-05T01:19:44;16.50;1.00
780;DHT22;373;49.342;8.146;2023-06-05T01:22:12;16.30;1.00
780;DHT22;373;49.342;8.146;2023-06-05T01:24:41;16.40;1.00
780;DHT22;373;49.342;8.146;2023-06-05T01:27:12;16.30;1.00
780;DHT22;373;49.342;8.146;2023-06-05T01:29:49;16.40;1.00
780;DHT22;373;49.342;8.146;2023-06-05T01:32:23;16.30;1.00
780;DHT22;373;49.342;8.146;2023-06-05T01:34:53;16.10;1.00
780;DHT22;373;49.342;8.146;2023-06-05T01:37:21;16.00;1.00
780;DHT22;373;49.342;8.146;2023-06-05T01:39:53;16.00;1.00
780;DHT22;373;49.342;8.146;2023-06-05T01:42:22;16.10;1.00
780;DHT22;373;49.342;8.146;2023-06-05T01:44:50;15.90;1.00
780;DHT22;373;49.342;8.146;2023-06-05T01:47:17;15.80;1.00
780;DHT22;373;49.342;8.146;2023-06-05T01:49:47;15.90;1.00
780;DHT22;373;49.342;8.146;2023-06-05T01:52:14;15.90;1.00
780;DHT22;373;49.342;8.146;2023-06-05T01:54:41;15.70;1.00
780;DHT22;373;49.342;8.146;2023-06-05T01:57:10;15.70;1.00
780;DHT22;373;49.342;8.146;2023-06-05T01:59:37;15.70;1.00
780;DHT22;373;49.342;8.146;2023-06-05T02:02:04;15.70;1.00
780;DHT22;373;49.342;8.146;2023-06-05T02:04:31;15.70;1.00
780;DHT22;373;49.342;8.146;2023-06-05T02:06:59;15.50;1.00
780;DHT22;373;49.342;8.146;2023-06-05T02:09:29;15.20;1.00
780;DHT22;373;49.342;8.146;2023-06-05T02:11:58;15.40;1.00
780;DHT22;373;49.342;8.146;2023-06-05T02:14:31;15.20;1.00
780;DHT22;373;49.342;8.146;2023-06-05T02:17:03;15.30;1.00
780;DHT22;373;49.342;8.146;2023-06-05T02:19:32;15.00;1.00
780;DHT22;373;49.342;8.146;2023-06-05T02:22:00;15.00;1.00
780;DHT22;373;49.342;8.146;2023-06-05T02:24:27;15.10;1.00
780;DHT22;373;49.342;8.146;2023-06-05T02:26:54;15.00;1.00
780;DHT22;373;49.342;8.146;2023-06-05T02:29:22;14.80;1.00
780;DHT22;373;49.342;8.146;2023-06-05T02:31:51;14.80;1.00
780;DHT22;373;49.342;8.146;2023-06-05T02:34:18;14.90;1.00
780;DHT22;373;49.342;8.146;2023-06-05T02:36:46;14.90;1.00
780;DHT22;373;49.342;8.146;2023-06-05T02:39:14;14.90;1.00
780;DHT22;373;49.342;8.146;2023-06-05T02:41:41;14.60;1.00
780;DHT22;373;49.342;8.146;2023-06-05T02:44:08;14.50;1.00
780;DHT22;373;49.342;8.146;2023-06-05T02:46:36;14.50;1.00
780;DHT22;373;49.342;8.146;2023-06-05T02:49:04;14.50;1.00
780;DHT22;373;49.342;8.146;2023-06-05T02:51:31;14.60;1.00
780;DHT22;373;49.342;8.146;2023-06-05T02:53:58;14.60;1.00
780;DHT22;373;49.342;8.146;2023-06-05T02:56:26;14.90;1.00
780;DHT22;373;49.342;8.146;2023-06-05T02:58:53;14.70;1.00
780;DHT22;373;49.342;8.146;2023-06-05T03:01:22;14.70;1.00
780;DHT22;373;49.342;8.146;2023-06-05T03:03:51;14.60;1.00
780;DHT22;373;49.342;8.146;2023-06-05T03:06:22;14.60;1.00
780;DHT22;373;49.342;8.146;2023-06-05T03:08:53;14.50;1.00
780;DHT22;373;49.342;8.146;2023-06-05T03:11:22;14.30;1.00
780;DHT22;373;49.342;8.146;2023-06-05T03:13:51;14.40;1.00
780;DHT22;373;49.342;8.146;2023-06-05T03:16:18;14.20;1.00
780;DHT22;373;49.342;8.146;2023-06-05T03:18:49;14.20;1.00
780;DHT22;373;49.342;8.146;2023-06-05T03:21:17;14.40;1.00
780;DHT22;373;49.342;8.146;2023-06-05T03:23:45;14.60;1.00
780;DHT22;373;49.342;8.146;2023-06-05T03:26:14;14.40;1.00
780;DHT22;373;49.342;8.146;2023-06-05T03:28:41;14.60;1.00
780;DHT22;373;49.342;8.146;2023-06-05T03:31:10;14.40;1.00
780;DHT22;373;49.342;8.146;2023-06-05T03:33:41;14.50;1.00
780;DHT22;373;49.342;8.146;2023-06-05T03:36:09;14.30;1.00
780;DHT22;373;49.342;8.146;2023-06-05T03:38:37;14.40;1.00
780;DHT22;373;49.342;8.146;2023-06-05T03:41:05;14.40;1.00
780;DHT22;373;49.342;8.146;2023-06-05T03:43:34;14.50;1.00
780;DHT22;373;49.342;8.146;2023-06-05T03:46:02;14.50;1.00
780;DHT22;373;49.342;8.146;2023-06-05T03:48:29;14.50;1.00
780;DHT22;373;49.342;8.146;2023-06-05T03:50:57;14.40;1.00
780;DHT22;373;49.342;8.146;2023-06-05T03:53:28;14.40;1.00
780;DHT22;373;49.342;8.146;2023-06-05T03:55:56;14.30;1.00
780;DHT22;373;49.342;8.146;2023-06-05T03:58:32;14.00;1.00
780;DHT22;373;49.342;8.146;2023-06-05T04:01:01;14.00;1.00
780;DHT22;373;49.342;8.146;2023-06-05T04:03:29;14.30;1.00
780;DHT22;373;49.342;8.146;2023-06-05T04:05:56;14.30;1.00
780;DHT22;373;49.342;8.146;2023-06-05T04:08:23;14.50;1.00
780;DHT22;373;49.342;8.146;2023-06-05T04:10:52;14.50;1.00
780;DHT22;373;49.342;8.146;2023-06-05T04:13:19;14.50;1.00
780;DHT22;373;49.342;8.146;2023-06-05T04:15:49;14.50;1.00
780;DHT22;373;49.342;8.146;2023-06-05T04:18:16;14.60;1.00
780;DHT22;373;49.342;8.146;2023-06-05T04:20:49;14.90;1.00
780;DHT22;373;49.342;8.146;2023-06-05T04:23:17;15.00;1.00
780;DHT22;373;49.342;8.146;2023-06-05T04:25:44;15.20;1.00
780;DHT22;373;49.342;8.146;2023-06-05T04:28:15;15.20;1.00
780;DHT22;373;49.342;8.146;2023-06-05T04:30:42;15.40;1.00
780;DHT22;373;49.342;8.146;2023-06-05T04:33:13;15.70;1.00
780;DHT22;373;49.342;8.146;2023-06-05T04:35:41;15.80;1.00
780;DHT22;373;49.342;8.146;2023-06-05T04:38:17;15.90;1.00
780;DHT22;373;49.342;8.146;2023-06-05T04:41:13;15.90;1.00
780;DHT22;373;49.342;8.146;2023-06-05T04:43:40;16.30;1.00
780;DHT22;373;49.342;8.146;2023-06-05T04:46:08;16.20;1.00
780;DHT22;373;49.342;8.146;2023-06-05T04:48:37;16.20;1.00
780;DHT22;373;49.342;8.146;2023-06-05T04:51:04;16.30;1.00
780;DHT22;373;49.342;8.146;2023-06-05T04:53:31;16.40;1.00
780;DHT22;373;49.342;8.146;2023-06-05T04:55:59;16.60;1.00
780;DHT22;373;49.342;8.146;2023-06-05T04:58:30;16.80;1.00
780;DHT22;373;49.342;8.146;2023-06-05T05:00:58;17.00;1.00
780;DHT22;373;49.342;8.146;2023-06-05T05:03:31;16.90;1.00
780;DHT22;373;49.342;8.146;2023-06-05T05:06:00;17.00;1.00
780;DHT22;373;49.342;8.146;2023-06-05T05:08:28;17.40;1.00
780;DHT22;373;49.342;8.146;2023-06-05T05:10:57;17.60;1.00
780;DHT22;373;49.342;8.146;2023-06-05T05:13:24;17.40;1.00
780;DHT22;373;49.342;8.146;2023-06-05T05:15:51;17.50;1.00
780;DHT22;373;49.342;8.146;2023-06-05T05:18:19;18.30;1.00
780;DHT22;373;49.342;8.146;2023-06-05T05:20:47;18.60;1.00
780;DHT22;373;49.342;8.146;2023-06-05T05:23:15;18.60;1.00
780;DHT22;373;49.342;8.146;2023-06-05T05:25:43;18.90;1.00
780;DHT22;373;49.342;8.146;2023-06-05T05:28:12;19.40;1.00
780;DHT22;373;49.342;8.146;2023-06-05T05:30:40;19.40;1.00
780;DHT22;373;49.342;8.146;2023-06-05T05:33:07;19.30;1.00
780;DHT22;373;49.342;8.146;2023-06-05T05:35:36;19.20;1.00
780;DHT22;373;49.342;8.146;2023-06-05T05:38:04;19.70;1.00
780;DHT22;373;49.342;8.146;2023-06-05T05:40:33;19.60;1.00
780;DHT22;373;49.342;8.146;2023-06-05T05:43:00;20.10;1.00
780;DHT22;373;49.342;8.146;2023-06-05T05:45:27;20.10;1.00
780;DHT22;373;49.342;8.146;2023-06-05T05:47:54;20.20;1.00
780;DHT22;373;49.342;8.146;2023-06-05T05:50:21;20.20;1.00
780;DHT22;373;49.342;8.146;2023-06-05T05:52:48;20.30;1.00
780;DHT22;373;49.342;8.146;2023-06-05T05:55:17;20.60;1.00
780;DHT22;373;49.342;8.146;2023-06-05T05:57:46;21.00;1.00
780;DHT22;373;49.342;8.146;2023-06-05T06:00:14;21.20;1.00
780;DHT22;373;49.342;8.146;2023-06-05T06:02:41;21.70;1.00
780;DHT22;373;49.342;8.146;2023-06-05T06:05:08;21.90;1.00
780;DHT22;373;49.342;8.146;2023-06-05T06:07:35;22.30;1.00
780;DHT22;373;49.342;8.146;2023-06-05T06:10:03;22.40;1.00
780;DHT22;373;49.342;8.146;2023-06-05T06:12:30;22.50;1.00
780;DHT22;373;49.342;8.146;2023-06-05T06:14:58;22.60;1.00
780;DHT22;373;49.342;8.146;2023-06-05T06:17:25;22.60;1.00
780;DHT22;373;49.342;8.146;2023-06-05T06:19:52;22.80;1.00
780;DHT22;373;49.342;8.146;2023-06-05T06:22:20;23.20;1.00
780;DHT22;373;49.342;8.146;2023-06-05T06:24:47;23.40;1.00
780;DHT22;373;49.342;8.146;2023-06-05T06:27:16;23.30;1.00
780;DHT22;373;49.342;8.146;2023-06-05T06:29:47;23.40;1.00
780;DHT22;373;49.342;8.146;2023-06-05T06:32:16;23.40;1.00
780;DHT22;373;49.342;8.146;2023-06-05T06:34:43;23.60;1.00
780;DHT22;373;49.342;8.146;2023-06-05T06:37:12;23.70;1.00
780;DHT22;373;49.342;8.146;2023-06-05T06:39:40;23.80;1.00
780;DHT22;373;49.342;8.146;2023-06-05T06:42:08;23.30;1.00
780;DHT22;373;49.342;8.146;2023-06-05T06:44:39;23.20;1.00
780;DHT22;373;49.342;8.146;2023-06-05T06:47:06;23.20;1.00
780;DHT22;373;49.342;8.146;2023-06-05T06:49:35;23.60;1.00
780;DHT22;373;49.342;8.146;2023-06-05T06:52:03;23.90;1.00
780;DHT22;373;49.342;8.146;2023-06-05T06:54:30;24.40;1.00
780;DHT22;373;49.342;8.146;2023-06-05T06:56:58;24.80;1.00
780;DHT22;373;49.342;8.146;2023-06-05T06:59:26;24.50;1.00
780;DHT22;373;49.342;8.146;2023-06-05T07:02:09;24.00;1.00
780;DHT22;373;49.342;8.146;2023-06-05T07:04:38;23.20;1.00
780;DHT22;373;49.342;8.146;2023-06-05T07:07:08;23.20;1.00
780;DHT22;373;49.342;8.146;2023-06-05T07:09:35;23.40;1.00
780;DHT22;373;49.342;8.146;2023-06-05T07:12:02;23.20;1.00
780;DHT22;373;49.342;8.146;2023-06-05T07:14:31;23.10;1.00
780;DHT22;373;49.342;8.146;2023-06-05T07:16:59;23.70;1.00
780;DHT22;373;49.342;8.146;2023-06-05T07:19:27;23.50;1.00
780;DHT22;373;49.342;8.146;2023-06-05T07:21:56;24.00;1.00
780;DHT22;373;49.342;8.146;2023-06-05T07:24:28;24.40;1.00
780;DHT22;373;49.342;8.146;2023-06-05T07:26:58;24.90;1.00
780;DHT22;373;49.342;8.146;2023-06-05T07:29:27;24.90;1.00
780;DHT22;373;49.342;8.146;2023-06-05T07:31:55;25.00;1.00
780;DHT22;373;49.342;8.146;2023-06-05T07:34:23;24.80;1.00
780;DHT22;373;49.342;8.146;2023-06-05T07:36:51;24.80;1.00
780;DHT22;373;49.342;8.146;2023-06-05T07:39:21;23.90;1.00
780;DHT22;373;49.342;8.146;2023-06-05T07:41:48;23.30;1.00
780;DHT22;373;49.342;8.146;2023-06-05T07:44:17;23.20;1.00
780;DHT22;373;49.342;8.146;2023-06-05T07:46:45;23.80;1.00
780;DHT22;373;49.342;8.146;2023-06-05T07:49:13;23.80;1.00
780;DHT22;373;49.342;8.146;2023-06-05T07:51:41;24.30;1.00
780;DHT22;373;49.342;8.146;2023-06-05T07:54:10;24.10;1.00
780;DHT22;373;49.342;8.146;2023-06-05T07:56:40;24.50;1.00
780;DHT22;373;49.342;8.146;2023-06-05T07:59:07;24.60;1.00
780;DHT22;373;49.342;8.146;2023-06-05T08:01:36;24.30;1.00
780;DHT22;373;49.342;8.146;2023-06-05T08:04:04;24.40;1.00
780;DHT22;373;49.342;8.146;2023-06-05T08:06:31;24.80;1.00
780;DHT22;373;49.342;8.146;2023-06-05T08:08:59;24.70;1.00
780;DHT22;373;49.342;8.146;2023-06-05T08:11:27;25.00;1.00
780;DHT22;373;49.342;8.146;2023-06-05T08:13:56;24.90;1.00
780;DHT22;373;49.342;8.146;2023-06-05T08:16:23;25.30;1.00
780;DHT22;373;49.342;8.146;2023-06-05T08:18:50;25.60;1.00
780;DHT22;373;49.342;8.146;2023-06-05T08:21:19;25.40;1.00
780;DHT22;373;49.342;8.146;2023-06-05T08:23:47;25.40;1.00
780;DHT22;373;49.342;8.146;2023-06-05T08:26:14;25.60;1.00
780;DHT22;373;49.342;8.146;2023-06-05T08:28:41;25.80;1.00
780;DHT22;373;49.342;8.146;2023-06-05T08:31:10;25.50;1.00
780;DHT22;373;49.342;8.146;2023-06-05T08:33:38;25.60;1.00
780;DHT22;373;49.342;8.146;2023-06-05T08:36:05;25.70;1.00
780;DHT22;373;49.342;8.146;2023-06-05T08:38:33;25.60;1.00
780;DHT22;373;49.342;8.146;2023-06-05T08:41:02;26.10;1.00
780;DHT22;373;49.342;8.146;2023-06-05T08:43:31;26.20;1.00
780;DHT22;373;49.342;8.146;2023-06-05T08:45:58;26.60;1.00
780;DHT22;373;49.342;8.146;2023-06-05T08:48:30;26.90;1.00
780;DHT22;373;49.342;8.146;2023-06-05T08:51:00;27.00;1.00
780;DHT22;373;49.342;8.146;2023-06-05T08:53:31;27.30;1.00
780;DHT22;373;49.342;8.146;2023-06-05T08:56:01;27.40;1.00
780;DHT22;373;49.342;8.146;2023-06-05T08:58:29;27.10;1.00
780;DHT22;373;49.342;8.146;2023-06-05T09:00:57;26.70;1.00
780;DHT22;373;49.342;8.146;2023-06-05T09:03:24;26.40;1.00
780;DHT22;373;49.342;8.146;2023-06-05T09:05:53;25.70;1.00
780;DHT22;373;49.342;8.146;2023-06-05T09:08:28;26.20;1.00
780;DHT22;373;49.342;8.146;2023-06-05T09:11:24;26.80;1.00
780;DHT22;373;49.342;8.146;2023-06-05T09:13:54;26.70;1.00
780;DHT22;373;49.342;8.146;2023-06-05T09:16:22;26.90;1.00
780;DHT22;373;49.342;8.146;2023-06-05T09:18:55;27.10;1.00
780;DHT22;373;49.342;8.146;2023-06-05T09:21:25;27.10;1.00
780;DHT22;373;49.342;8.146;2023-06-05T09:24:11;27.00;1.00
780;DHT22;373;49.342;8.146;2023-06-05T09:26:52;26.80;1.00
780;DHT22;373;49.342;8.146;2023-06-05T09:29:21;27.00;1.00
780;DHT22;373;49.342;8.146;2023-06-05T09:31:48;27.10;1.00
780;DHT22;373;49.342;8.146;2023-06-05T09:34:21;26.50;1.00
780;DHT22;373;49.342;8.146;2023-06-05T09:36:49;26.10;1.00
780;DHT22;373;49.342;8.146;2023-06-05T09:39:18;26.50;1.00
780;DHT22;373;49.342;8.146;2023-06-05T09:41:47;26.80;1.00
780;DHT22;373;49.342;8.146;2023-06-05T09:44:15;26.00;1.00
780;DHT22;373;49.342;8.146;2023-06-05T09:46:51;26.20;1.00
780;DHT22;373;49.342;8.146;2023-06-05T09:49:19;26.60;1.00
780;DHT22;373;49.342;8.146;2023-06-05T09:51:46;26.80;1.00
780;DHT22;373;49.342;8.146;2023-06-05T09:54:16;27.10;1.00
780;DHT22;373;49.342;8.146;2023-06-05T09:56:47;27.50;1.00
780;DHT22;373;49.342;8.146;2023-06-05T09:59:19;27.80;1.00
780;DHT22;373;49.342;8.146;2023-06-05T10:01:51;27.30;1.00
780;DHT22;373;49.342;8.146;2023-06-05T10:04:22;26.90;1.00
780;DHT22;373;49.342;8.146;2023-06-05T10:06:50;26.20;1.00
780;DHT22;373;49.342;8.146;2023-06-05T10:09:19;26.50;1.00
780;DHT22;373;49.342;8.146;2023-06-05T10:11:48;26.50;1.00
780;DHT22;373;49.342;8.146;2023-06-05T10:14:16;26.40;1.00
780;DHT22;373;49.342;8.146;2023-06-05T10:16:48;26.00;1.00
780;DHT22;373;49.342;8.146;2023-06-05T10:19:17;26.50;1.00
780;DHT22;373;49.342;8.146;2023-06-05T10:21:47;26.70;1.00
780;DHT22;373;49.342;8.146;2023-06-05T10:24:22;27.50;1.00
780;DHT22;373;49.342;8.146;2023-06-05T10:27:04;27.70;1.00
780;DHT22;373;49.342;8.146;2023-06-05T10:29:48;27.60;1.00
780;DHT22;373;49.342;8.146;2023-06-05T10:32:29;26.90;1.00
780;DHT22;373;49.342;8.146;2023-06-05T10:35:08;26.70;1.00
780;DHT22;373;49.342;8.146;2023-06-05T10:37:50;26.80;1.00
780;DHT22;373;49.342;8.146;2023-06-05T10:40:22;26.50;1.00
780;DHT22;373;49.342;8.146;2023-06-05T10:42:51;26.60;1.00
780;DHT22;373;49.342;8.146;2023-06-05T10:45:29;26.50;1.00
780;DHT22;373;49.342;8.146;2023-06-05T10:47:58;27.50;1.00
780;DHT22;373;49.342;8.146;2023-06-05T10:50:27;28.00;1.00
780;DHT22;373;49.342;8.146;2023-06-05T10:52:56;28.20;1.00
780;DHT22;373;49.342;8.146;2023-06-05T10:55:41;28.30;1.00
780;DHT22;373;49.342;8.146;2023-06-05T10:58:10;27.80;1.00
780;DHT22;373;49.342;8.146;2023-06-05T11:01:16;28.20;1.00
780;DHT22;373;49.342;8.146;2023-06-05T11:03:56;28.60;1.00
780;DHT22;373;49.342;8.146;2023-06-05T11:06:24;28.10;1.00
780;DHT22;373;49.342;8.146;2023-06-05T11:09:11;28.20;1.00
780;DHT22;373;49.342;8.146;2023-06-05T11:11:57;28.40;1.00
780;DHT22;373;49.342;8.146;2023-06-05T11:14:42;28.80;1.00
780;DHT22;373;49.342;8.146;2023-06-05T11:17:27;29.00;1.00
780;DHT22;373;49.342;8.146;2023-06-05T11:19:56;29.00;1.00
780;DHT22;373;49.342;8.146;2023-06-05T11:22:24;27.80;1.00
780;DHT22;373;49.342;8.146;2023-06-05T11:25:26;28.00;1.00
780;DHT22;373;49.342;8.146;2023-06-05T11:27:55;28.00;1.00
780;DHT22;373;49.342;8.146;2023-06-05T11:30:26;28.10;1.00
780;DHT22;373;49.342;8.146;2023-06-05T11:32:55;27.70;1.00
780;DHT22;373;49.342;8.146;2023-06-05T11:35:25;27.60;1.00
780;DHT22;373;49.342;8.146;2023-06-05T11:38:07;28.00;1.00
780;DHT22;373;49.342;8.146;2023-06-05T11:40:35;28.10;1.00
780;DHT22;373;49.342;8.146;2023-06-05T11:43:04;28.00;1.00
780;DHT22;373;49.342;8.146;2023-06-05T11:45:33;28.10;1.00
780;DHT22;373;49.342;8.146;2023-06-05T11:48:05;28.60;1.00
780;DHT22;373;49.342;8.146;2023-06-05T11:50:33;28.70;1.00
780;DHT22;373;49.342;8.146;2023-06-05T11:53:04;28.60;1.00
780;DHT22;373;49.342;8.146;2023-06-05T11:55:32;28.80;1.00
780;DHT22;373;49.342;8.146;2023-06-05T11:58:11;29.30;1.00
780;DHT22;373;49.342;8.146;2023-06-05T12:00:38;29.50;1.00
780;DHT22;373;49.342;8.146;2023-06-05T12:03:05;29.30;1.00
780;DHT22;373;49.342;8.146;2023-06-05T12:05:44;29.10;1.00
780;DHT22;373;49.342;8.146;2023-06-05T12:08:21;29.10;1.00
780;DHT22;373;49.342;8.146;2023-06-05T12:10:48;28.90;1.00
780;DHT22;373;49.342;8.146;2023-06-05T12:13:17;29.30;1.00
780;DHT22;373;49.342;8.146;2023-06-05T12:15:56;29.40;1.00
780;DHT22;373;49.342;8.146;2023-06-05T12:18:31;29.50;1.00
780;DHT22;373;49.342;8.146;2023-06-05T12:20:58;29.70;1.00
780;DHT22;373;49.342;8.146;2023-06-05T12:23:25;29.50;1.00
780;DHT22;373;49.342;8.146;2023-06-05T12:25:59;29.00;1.00
780;DHT22;373;49.342;8.146;2023-06-05T12:28:29;28.60;1.00
780;DHT22;373;49.342;8.146;2023-06-05T12:30:56;28.90;1.00
780;DHT22;373;49.342;8.146;2023-06-05T12:33:24;28.50;1.00
780;DHT22;373;49.342;8.146;2023-06-05T12:36:04;28.70;1.00
780;DHT22;373;49.342;8.146;2023-06-05T12:38:36;28.70;1.00
780;DHT22;373;49.342;8.146;2023-06-05T12:41:07;28.50;1.00
780;DHT22;373;49.342;8.146;2023-06-05T12:43:36;28.70;1.00
780;DHT22;373;49.342;8.146;2023-06-05T12:46:03;28.90;1.00
780;DHT22;373;49.342;8.146;2023-06-05T12:48:37;28.40;1.00
780;DHT22;373;49.342;8.146;2023-06-05T12:51:04;27.80;1.00
780;DHT22;373;49.342;8.146;2023-06-05T12:53:31;27.60;1.00
780;DHT22;373;49.342;8.146;2023-06-05T12:55:59;27.90;1.00
780;DHT22;373;49.342;8.146;2023-06-05T12:58:26;28.50;1.00
780;DHT22;373;49.342;8.146;2023-06-05T13:00:55;28.90;1.00
780;DHT22;373;49.342;8.146;2023-06-05T13:03:22;28.30;1.00
780;DHT22;373;49.342;8.146;2023-06-05T13:05:50;28.10;1.00
780;DHT22;373;49.342;8.146;2023-06-05T13:08:17;28.50;1.00
780;DHT22;373;49.342;8.146;2023-06-05T13:10:44;28.80;1.00
780;DHT22;373;49.342;8.146;2023-06-05T13:13:11;29.30;1.00
780;DHT22;373;49.342;8.146;2023-06-05T13:15:40;29.70;1.00
780;DHT22;373;49.342;8.146;2023-06-05T13:18:09;29.70;1.00
780;DHT22;373;49.342;8.146;2023-06-05T13:20:36;30.10;1.00
780;DHT22;373;49.342;8.146;2023-06-05T13:23:03;30.00;1.00
780;DHT22;373;49.342;8.146;2023-06-05T13:25:32;29.80;1.00
780;DHT22;373;49.342;8.146;2023-06-05T13:27:59;29.10;1.00
780;DHT22;373;49.342;8.146;2023-06-05T13:30:26;29.20;1.00
780;DHT22;373;49.342;8.146;2023-06-05T13:32:53;29.30;1.00
780;DHT22;373;49.342;8.146;2023-06-05T13:35:22;28.90;1.00
780;DHT22;373;49.342;8.146;2023-06-05T13:37:49;28.70;1.00
780;DHT22;373;49.342;8.146;2023-06-05T13:40:17;28.60;1.00
780;DHT22;373;49.342;8.146;2023-06-05T13:42:44;29.00;1.00
780;DHT22;373;49.342;8.146;2023-06-05T13:45:12;29.20;1.00
780;DHT22;373;49.342;8.146;2023-06-05T13:47:40;28.60;1.00
780;DHT22;373;49.342;8.146;2023-06-05T13:50:08;28.60;1.00
780;DHT22;373;49.342;8.146;2023-06-05T13:52:36;28.60;1.00
780;DHT22;373;49.342;8.146;2023-06-05T13:55:05;28.80;1.00
780;DHT22;373;49.342;8.146;2023-06-05T13:57:32;29.00;1.00
780;DHT22;373;49.342;8.146;2023-06-05T14:00:00;28.90;1.00
780;DHT22;373;49.342;8.146;2023-06-05T14:02:28;29.00;1.00
780;DHT22;373;49.342;8.146;2023-06-05T14:04:55;29.30;1.00
780;DHT22;373;49.342;8.146;2023-06-05T14:07:22;29.20;1.00
780;DHT22;373;49.342;8.146;2023-06-05T14:09:51;29.70;1.00
780;DHT22;373;49.342;8.146;2023-06-05T14:12:18;29.70;1.00
780;DHT22;373;49.342;8.146;2023-06-05T14:14:45;29.60;1.00
780;DHT22;373;49.342;8.146;2023-06-05T14:17:12;29.60;1.00
780;DHT22;373;49.342;8.146;2023-06-05T14:19:39;29.90;1.00
780;DHT22;373;49.342;8.146;2023-06-05T14:22:07;30.10;1.00
780;DHT22;373;49.342;8.146;2023-06-05T14:24:35;29.80;1.00
780;DHT22;373;49.342;8.146;2023-06-05T14:27:04;29.60;1.00
780;DHT22;373;49.342;8.146;2023-06-05T14:29:31;29.30;1.00
780;DHT22;373;49.342;8.146;2023-06-05T14:31:58;29.10;1.00
780;DHT22;373;49.342;8.146;2023-06-05T14:34:25;28.70;1.00
780;DHT22;373;49.342;8.146;2023-06-05T14:36:52;28.70;1.00
780;DHT22;373;49.342;8.146;2023-06-05T14:39:19;28.90;1.00
780;DHT22;373;49.342;8.146;2023-06-05T14:41:47;29.10;1.00
780;DHT22;373;49.342;8.146;2023-06-05T14:44:15;29.20;1.00
780;DHT22;373;49.342;8.146;2023-06-05T14:46:43;29.30;1.00
780;DHT22;373;49.342;8.146;2023-06-05T14:49:10;28.90;1.00
780;DHT22;373;49.342;8.146;2023-06-05T14:51:38;28.80;1.00
780;DHT22;373;49.342;8.146;2023-06-05T14:54:05;29.00;1.00
780;DHT22;373;49.342;8.146;2023-06-05T14:56:32;28.70;1.00
780;DHT22;373;49.342;8.146;2023-06-05T14:58:59;27.70;1.00
780;DHT22;373;49.342;8.146;2023-06-05T15:01:28;27.40;1.00
780;DHT22;373;49.342;8.146;2023-06-05T15:03:57;27.20;1.00
780;DHT22;373;49.342;8.146;2023-06-05T15:06:26;27.50;1.00
780;DHT22;373;49.342;8.146;2023-06-05T15:08:54;28.00;1.00
780;DHT22;373;49.342;8.146;2023-06-05T15:11:21;28.20;1.00
780;DHT22;373;49.342;8.146;2023-06-05T15:13:48;28.20;1.00
780;DHT22;373;49.342;8.146;2023-06-05T15:16:15;28.40;1.00
780;DHT22;373;49.342;8.146;2023-06-05T15:18:45;28.40;1.00
780;DHT22;373;49.342;8.146;2023-06-05T15:21:12;28.50;1.00
780;DHT22;373;49.342;8.146;2023-06-05T15:23:39;28.40;1.00
780;DHT22;373;49.342;8.146;2023-06-05T15:26:07;28.30;1.00
780;DHT22;373;49.342;8.146;2023-06-05T15:28:34;28.30;1.00
780;DHT22;373;49.342;8.146;2023-06-05T15:31:01;28.00;1.00
780;DHT22;373;49.342;8.146;2023-06-05T15:33:28;27.60;1.00
780;DHT22;373;49.342;8.146;2023-06-05T15:35:57;27.80;1.00
780;DHT22;373;49.342;8.146;2023-06-05T15:38:24;27.70;1.00
780;DHT22;373;49.342;8.146;2023-06-05T15:40:51;27.90;1.00
780;DHT22;373;49.342;8.146;2023-06-05T15:43:19;28.10;1.00
780;DHT22;373;49.342;8.146;2023-06-05T15:45:46;28.10;1.00
780;DHT22;373;49.342;8.146;2023-06-05T15:48:13;27.80;1.00
780;DHT22;373;49.342;8.146;2023-06-05T15:50:41;27.80;1.00
780;DHT22;373;49.342;8.146;2023-06-05T15:53:09;27.90;1.00
780;DHT22;373;49.342;8.146;2023-06-05T15:55:36;28.00;1.00
780;DHT22;373;49.342;8.146;2023-06-05T15:58:05;28.20;1.00
780;DHT22;373;49.342;8.146;2023-06-05T16:00:32;28.00;1.00
780;DHT22;373;49.342;8.146;2023-06-05T16:02:59;27.70;1.00
780;DHT22;373;49.342;8.146;2023-06-05T16:05:27;27.60;1.00
780;DHT22;373;49.342;8.146;2023-06-05T16:07:54;27.70;1.00
780;DHT22;373;49.342;8.146;2023-06-05T16:10:22;27.80;1.00
780;DHT22;373;49.342;8.146;2023-06-05T16:12:49;27.90;1.00
780;DHT22;373;49.342;8.146;2023-06-05T16:15:17;28.10;1.00
780;DHT22;373;49.342;8.146;2023-06-05T16:17:44;27.90;1.00
780;DHT22;373;49.342;8.146;2023-06-05T16:20:12;27.90;1.00
780;DHT22;373;49.342;8.146;2023-06-05T16:22:39;27.80;1.00
780;DHT22;373;49.342;8.146;2023-06-05T16:25:07;27.60;1.00
780;DHT22;373;49.342;8.146;2023-06-05T16:27:36;27.70;1.00
780;DHT22;373;49.342;8.146;2023-06-05T16:30:04;27.80;1.00
780;DHT22;373;49.342;8.146;2023-06-05T16:32:31;27.70;1.00
780;DHT22;373;49.342;8.146;2023-06-05T16:35:01;27.60;1.00
780;DHT22;373;49.342;8.146;2023-06-05T16:37:29;27.50;1.00
780;DHT22;373;49.342;8.146;2023-06-05T16:39:56;27.40;1.00
780;DHT22;373;49.342;8.146;2023-06-05T16:42:25;27.30;1.00
780;DHT22;373;49.342;8.146;2023-06-05T16:44:54;27.20;1.00
780;DHT22;373;49.342;8.146;2023-06-05T16:47:23;27.20;1.00
780;DHT22;373;49.342;8.146;2023-06-05T16:49:50;27.10;1.00
780;DHT22;373;49.342;8.146;2023-06-05T16:52:17;27.10;1.00
780;DHT22;373;49.342;8.146;2023-06-05T16:54:45;27.10;1.00
780;DHT22;373;49.342;8.146;2023-06-05T16:57:12;27.00;1.00
780;DHT22;373;49.342;8.146;2023-06-05T16:59:39;27.00;1.00
780;DHT22;373;49.342;8.146;2023-06-05T17:02:07;26.90;1.00
780;DHT22;373;49.342;8.146;2023-06-05T17:04:35;27.00;1.00